Terminal Aerodrome Forecast
Issued by NWS Tampa Bay Area, FL

Home | Current Version | Previous Version | Text Only | Print | Product List | Glossary On
Versions: 1 2 3 4 5 6 7 8 9 10 11 12 13 14 15
000
FTUS42 KTBW 221403 AAA
TAFFMY
TAF AMD
KFMY 221403Z 2214/2312 09005KT 5SM BR SCT010
     FM221500 12008KT P6SM SCT015
     FM221800 17009KT P6SM SCT040 BKN150
     FM230100 14006KT P6SM SCT050 BKN100
     FM230800 14004KT 5SM BR BKN015=

USA.gov is the U.S. government's official web portal to all federal, state and local government web resources and services.